sensor_id;sensor_type;location;lat;lon;timestamp;P1;P2;P0
53658;PMS5003;41524;35.624;139.698;2023-02-19T00:00:09;43.00;42.00;
53658;PMS5003;41524;35.624;139.698;2023-02-19T00:05:15;48.00;42.00;
53658;PMS5003;41524;35.624;139.698;2023-02-19T00:10:13;48.00;46.00;
53658;PMS5003;41524;35.624;139.698;2023-02-19T00:15:09;39.00;38.00;
53658;PMS5003;41524;35.624;139.698;2023-02-19T00:20:13;47.00;41.00;
53658;PMS5003;41524;35.624;139.698;2023-02-19T00:25:14;40.00;38.00;
53658;PMS5003;41524;35.624;139.698;2023-02-19T00:30:09;40.00;37.00;
53658;PMS5003;41524;35.624;139.698;2023-02-19T00:35:09;44.00;41.00;
53658;PMS5003;41524;35.624;139.698;2023-02-19T00:40:10;45.00;41.00;
53658;PMS5003;41524;35.624;139.698;2023-02-19T00:45:10;50.00;40.00;
53658;PMS5003;41524;35.624;139.698;2023-02-19T00:50:11;42.00;41.00;
53658;PMS5003;41524;35.624;139.698;2023-02-19T00:55:09;50.00;45.00;
53658;PMS5003;41524;35.624;139.698;2023-02-19T01:00:16;54.00;51.00;
53658;PMS5003;41524;35.624;139.698;2023-02-19T01:05:14;52.00;48.00;
53658;PMS5003;41524;35.624;139.698;2023-02-19T01:10:09;51.00;50.00;
53658;PMS5003;41524;35.624;139.698;2023-02-19T01:15:15;51.00;48.00;
53658;PMS5003;41524;35.624;139.698;2023-02-19T01:20:09;45.00;44.00;
53658;PMS5003;41524;35.624;139.698;2023-02-19T01:25:10;52.00;48.00;
53658;PMS5003;41524;35.624;139.698;2023-02-19T01:30:10;47.00;46.00;
53658;PMS5003;41524;35.624;139.698;2023-02-19T01:35:15;54.00;49.00;
53658;PMS5003;41524;35.624;139.698;2023-02-19T01:40:13;55.00;48.00;
53658;PMS5003;41524;35.624;139.698;2023-02-19T01:45:23;49.00;45.00;
53658;PMS5003;41524;35.624;139.698;2023-02-19T01:50:10;58.00;55.00;
53658;PMS5003;41524;35.624;139.698;2023-02-19T01:55:14;56.00;53.00;
53658;PMS5003;41524;35.624;139.698;2023-02-19T02:00:14;62.00;58.00;
53658;PMS5003;41524;35.624;139.698;2023-02-19T02:05:17;60.00;57.00;
53658;PMS5003;41524;35.624;139.698;2023-02-19T02:10:14;60.00;54.00;
53658;PMS5003;41524;35.624;139.698;2023-02-19T02:15:13;55.00;53.00;
53658;PMS5003;41524;35.624;139.698;2023-02-19T02:20:20;65.00;57.00;
53658;PMS5003;41524;35.624;139.698;2023-02-19T02:25:22;64.00;57.00;
53658;PMS5003;41524;35.624;139.698;2023-02-19T02:30:12;55.00;55.00;
53658;PMS5003;41524;35.624;139.698;2023-02-19T02:35:10;57.00;53.00;
53658;PMS5003;41524;35.624;139.698;2023-02-19T02:40:13;55.00;52.00;
53658;PMS5003;41524;35.624;139.698;2023-02-19T02:45:21;62.00;56.00;
53658;PMS5003;41524;35.624;139.698;2023-02-19T02:50:17;53.00;45.00;
53658;PMS5003;41524;35.624;139.698;2023-02-19T02:55:12;55.00;49.00;
53658;PMS5003;41524;35.624;139.698;2023-02-19T03:00:10;55.00;51.00;
53658;PMS5003;41524;35.624;139.698;2023-02-19T03:05:11;57.00;54.00;
53658;PMS5003;41524;35.624;139.698;2023-02-19T03:10:10;64.00;61.00;
53658;PMS5003;41524;35.624;139.698;2023-02-19T03:15:14;54.00;52.00;
53658;PMS5003;41524;35.624;139.698;2023-02-19T03:20:15;53.00;49.00;
53658;PMS5003;41524;35.624;139.698;2023-02-19T03:25:10;54.00;49.00;
53658;PMS5003;41524;35.624;139.698;2023-02-19T03:30:11;52.00;46.00;
53658;PMS5003;41524;35.624;139.698;2023-02-19T03:35:10;53.00;49.00;
53658;PMS5003;41524;35.624;139.698;2023-02-19T03:40:20;56.00;51.00;
53658;PMS5003;41524;35.624;139.698;2023-02-19T03:45:13;59.00;51.00;
53658;PMS5003;41524;35.624;139.698;2023-02-19T03:50:15;48.00;44.00;
53658;PMS5003;41524;35.624;139.698;2023-02-19T03:55:10;47.00;42.00;
53658;PMS5003;41524;35.624;139.698;2023-02-19T04:00:10;58.00;51.00;
53658;PMS5003;41524;35.624;139.698;2023-02-19T04:05:16;48.00;46.00;
53658;PMS5003;41524;35.624;139.698;2023-02-19T04:10:09;53.00;49.00;
53658;PMS5003;41524;35.624;139.698;2023-02-19T04:15:11;56.00;50.00;
53658;PMS5003;41524;35.624;139.698;2023-02-19T04:20:10;57.00;53.00;
53658;PMS5003;41524;35.624;139.698;2023-02-19T04:25:14;48.00;44.00;
53658;PMS5003;41524;35.624;139.698;2023-02-19T04:30:15;40.00;37.00;
53658;PMS5003;41524;35.624;139.698;2023-02-19T04:35:14;47.00;43.00;
53658;PMS5003;41524;35.624;139.698;2023-02-19T04:40:15;45.00;41.00;
53658;PMS5003;41524;35.624;139.698;2023-02-19T04:45:09;46.00;42.00;
53658;PMS5003;41524;35.624;139.698;2023-02-19T04:50:09;39.00;31.00;
53658;PMS5003;41524;35.624;139.698;2023-02-19T04:55:09;31.00;29.00;
53658;PMS5003;41524;35.624;139.698;2023-02-19T05:00:20;37.00;32.00;
53658;PMS5003;41524;35.624;139.698;2023-02-19T05:05:09;35.00;33.00;
53658;PMS5003;41524;35.624;139.698;2023-02-19T05:10:09;46.00;41.00;
53658;PMS5003;41524;35.624;139.698;2023-02-19T05:15:14;23.00;23.00;
53658;PMS5003;41524;35.624;139.698;2023-02-19T05:20:09;27.00;24.00;
53658;PMS5003;41524;35.624;139.698;2023-02-19T05:25:09;23.00;23.00;
53658;PMS5003;41524;35.624;139.698;2023-02-19T05:30:09;15.00;13.00;
53658;PMS5003;41524;35.624;139.698;2023-02-19T05:35:09;22.00;18.00;
53658;PMS5003;41524;35.624;139.698;2023-02-19T05:40:14;20.00;19.00;
53658;PMS5003;41524;35.624;139.698;2023-02-19T05:45:15;15.00;15.00;
53658;PMS5003;41524;35.624;139.698;2023-02-19T05:50:13;13.00;12.00;
53658;PMS5003;41524;35.624;139.698;2023-02-19T05:55:15;14.00;13.00;
53658;PMS5003;41524;35.624;139.698;2023-02-19T06:00:10;5.00;5.00;
53658;PMS5003;41524;35.624;139.698;2023-02-19T06:05:15;7.00;5.00;
53658;PMS5003;41524;35.624;139.698;2023-02-19T06:10:09;7.00;5.00;
53658;PMS5003;41524;35.624;139.698;2023-02-19T06:15:10;8.00;8.00;
53658;PMS5003;41524;35.624;139.698;2023-02-19T06:20:14;7.00;6.00;
53658;PMS5003;41524;35.624;139.698;2023-02-19T06:25:14;5.00;4.00;
53658;PMS5003;41524;35.624;139.698;2023-02-19T06:30:09;6.00;5.00;
53658;PMS5003;41524;35.624;139.698;2023-02-19T06:35:08;5.00;5.00;
53658;PMS5003;41524;35.624;139.698;2023-02-19T06:40:10;23.00;22.00;
53658;PMS5003;41524;35.624;139.698;2023-02-19T06:45:15;41.00;39.00;
53658;PMS5003;41524;35.624;139.698;2023-02-19T06:50:09;35.00;32.00;
53658;PMS5003;41524;35.624;139.698;2023-02-19T06:55:09;34.00;31.00;
53658;PMS5003;41524;35.624;139.698;2023-02-19T07:00:14;30.00;25.00;
53658;PMS5003;41524;35.624;139.698;2023-02-19T07:05:19;33.00;30.00;
53658;PMS5003;41524;35.624;139.698;2023-02-19T07:10:14;39.00;35.00;
53658;PMS5003;41524;35.624;139.698;2023-02-19T07:15:09;39.00;36.00;
53658;PMS5003;41524;35.624;139.698;2023-02-19T07:20:15;38.00;36.00;
53658;PMS5003;41524;35.624;139.698;2023-02-19T07:25:10;38.00;38.00;
53658;PMS5003;41524;35.624;139.698;2023-02-19T07:30:10;46.00;34.00;
53658;PMS5003;41524;35.624;139.698;2023-02-19T07:35:09;52.00;45.00;
53658;PMS5003;41524;35.624;139.698;2023-02-19T07:40:14;54.00;44.00;
53658;PMS5003;41524;35.624;139.698;2023-02-19T07:45:15;42.00;37.00;
53658;PMS5003;41524;35.624;139.698;2023-02-19T07:50:14;47.00;45.00;
53658;PMS5003;41524;35.624;139.698;2023-02-19T07:55:09;54.00;47.00;
53658;PMS5003;41524;35.624;139.698;2023-02-19T08:00:09;58.00;50.00;
53658;PMS5003;41524;35.624;139.698;2023-02-19T08:05:09;57.00;48.00;
53658;PMS5003;41524;35.624;139.698;2023-02-19T08:10:09;51.00;44.00;
53658;PMS5003;41524;35.624;139.698;2023-02-19T08:15:09;41.00;37.00;
53658;PMS5003;41524;35.624;139.698;2023-02-19T08:20:09;21.00;17.00;
53658;PMS5003;41524;35.624;139.698;2023-02-19T08:25:15;22.00;18.00;
53658;PMS5003;41524;35.624;139.698;2023-02-19T08:30:08;33.00;27.00;
53658;PMS5003;41524;35.624;139.698;2023-02-19T08:35:10;37.00;31.00;
53658;PMS5003;41524;35.624;139.698;2023-02-19T08:40:10;25.00;23.00;
53658;PMS5003;41524;35.624;139.698;2023-02-19T08:45:14;25.00;24.00;
53658;PMS5003;41524;35.624;139.698;2023-02-19T08:50:10;23.00;20.00;
53658;PMS5003;41524;35.624;139.698;2023-02-19T08:55:09;24.00;21.00;
53658;PMS5003;41524;35.624;139.698;2023-02-19T09:00:15;13.00;11.00;
53658;PMS5003;41524;35.624;139.698;2023-02-19T09:05:14;25.00;24.00;
53658;PMS5003;41524;35.624;139.698;2023-02-19T09:10:09;14.00;14.00;
53658;PMS5003;41524;35.624;139.698;2023-02-19T09:15:09;15.00;15.00;
53658;PMS5003;41524;35.624;139.698;2023-02-19T09:20:12;17.00;17.00;
53658;PMS5003;41524;35.624;139.698;2023-02-19T09:25:09;16.00;15.00;
53658;PMS5003;41524;35.624;139.698;2023-02-19T09:30:08;12.00;10.00;
53658;PMS5003;41524;35.624;139.698;2023-02-19T09:35:09;13.00;11.00;
53658;PMS5003;41524;35.624;139.698;2023-02-19T09:40:09;9.00;9.00;
53658;PMS5003;41524;35.624;139.698;2023-02-19T09:45:16;5.00;4.00;
53658;PMS5003;41524;35.624;139.698;2023-02-19T09:50:11;3.00;3.00;
53658;PMS5003;41524;35.624;139.698;2023-02-19T09:55:15;2.00;1.00;
53658;PMS5003;41524;35.624;139.698;2023-02-19T10:00:22;2.00;2.00;
53658;PMS5003;41524;35.624;139.698;2023-02-19T10:05:14;3.00;2.00;
53658;PMS5003;41524;35.624;139.698;2023-02-19T10:10:18;2.00;2.00;
53658;PMS5003;41524;35.624;139.698;2023-02-19T10:15:10;1.00;1.00;
53658;PMS5003;41524;35.624;139.698;2023-02-19T10:20:11;0.00;0.00;
53658;PMS5003;41524;35.624;139.698;2023-02-19T10:25:12;0.00;0.00;
53658;PMS5003;41524;35.624;139.698;2023-02-19T10:30:16;2.00;1.00;
53658;PMS5003;41524;35.624;139.698;2023-02-19T10:35:15;1.00;1.00;
53658;PMS5003;41524;35.624;139.698;2023-02-19T10:40:17;0.00;0.00;
53658;PMS5003;41524;35.624;139.698;2023-02-19T10:45:11;1.00;1.00;
53658;PMS5003;41524;35.624;139.698;2023-02-19T10:50:24;1.00;1.00;
53658;PMS5003;41524;35.624;139.698;2023-02-19T10:55:24;1.00;1.00;
53658;PMS5003;41524;35.624;139.698;2023-02-19T11:00:18;1.00;1.00;
53658;PMS5003;41524;35.624;139.698;2023-02-19T11:05:15;1.00;1.00;
53658;PMS5003;41524;35.624;139.698;2023-02-19T11:10:18;2.00;1.00;
53658;PMS5003;41524;35.624;139.698;2023-02-19T11:15:18;0.00;0.00;
53658;PMS5003;41524;35.624;139.698;2023-02-19T11:20:12;1.00;1.00;
53658;PMS5003;41524;35.624;139.698;2023-02-19T11:25:17;0.00;0.00;
53658;PMS5003;41524;35.624;139.698;2023-02-19T11:30:42;1.00;1.00;
53658;PMS5003;41524;35.624;139.698;2023-02-19T11:35:17;2.00;2.00;
53658;PMS5003;41524;35.624;139.698;2023-02-19T11:40:16;0.00;0.00;
53658;PMS5003;41524;35.624;139.698;2023-02-19T11:45:14;2.00;1.00;
53658;PMS5003;41524;35.624;139.698;2023-02-19T11:50:11;1.00;0.00;
53658;PMS5003;41524;35.624;139.698;2023-02-19T11:55:10;1.00;1.00;
53658;PMS5003;41524;35.624;139.698;2023-02-19T12:00:21;3.00;2.00;
53658;PMS5003;41524;35.624;139.698;2023-02-19T12:05:18;2.00;2.00;
53658;PMS5003;41524;35.624;139.698;2023-02-19T12:10:10;3.00;3.00;
53658;PMS5003;41524;35.624;139.698;2023-02-19T12:15:21;3.00;3.00;
53658;PMS5003;41524;35.624;139.698;2023-02-19T12:20:17;2.00;2.00;
53658;PMS5003;41524;35.624;139.698;2023-02-19T12:26:17;4.00;3.00;
53658;PMS5003;41524;35.624;139.698;2023-02-19T12:30:18;7.00;6.00;
53658;PMS5003;41524;35.624;139.698;2023-02-19T12:35:13;3.00;3.00;
53658;PMS5003;41524;35.624;139.698;2023-02-19T12:40:18;4.00;2.00;
53658;PMS5003;41524;35.624;139.698;2023-02-19T12:45:13;4.00;4.00;
53658;PMS5003;41524;35.624;139.698;2023-02-19T12:50:13;5.00;5.00;
53658;PMS5003;41524;35.624;139.698;2023-02-19T12:55:15;4.00;4.00;
53658;PMS5003;41524;35.624;139.698;2023-02-19T13:00:25;8.00;8.00;
53658;PMS5003;41524;35.624;139.698;2023-02-19T13:05:13;7.00;7.00;
53658;PMS5003;41524;35.624;139.698;2023-02-19T13:10:14;6.00;6.00;
53658;PMS5003;41524;35.624;139.698;2023-02-19T13:15:14;8.00;7.00;
53658;PMS5003;41524;35.624;139.698;2023-02-19T13:20:22;7.00;6.00;
53658;PMS5003;41524;35.624;139.698;2023-02-19T13:25:09;9.00;8.00;
53658;PMS5003;41524;35.624;139.698;2023-02-19T13:30:11;10.00;7.00;
53658;PMS5003;41524;35.624;139.698;2023-02-19T13:35:24;6.00;6.00;
53658;PMS5003;41524;35.624;139.698;2023-02-19T13:40:18;7.00;7.00;
53658;PMS5003;41524;35.624;139.698;2023-02-19T13:45:19;6.00;4.00;
53658;PMS5003;41524;35.624;139.698;2023-02-19T13:50:11;9.00;7.00;
53658;PMS5003;41524;35.624;139.698;2023-02-19T14:00:45;8.00;7.00;
53658;PMS5003;41524;35.624;139.698;2023-02-19T14:05:14;8.00;7.00;
53658;PMS5003;41524;35.624;139.698;2023-02-19T14:10:11;9.00;8.00;
53658;PMS5003;41524;35.624;139.698;2023-02-19T14:15:42;6.00;6.00;
53658;PMS5003;41524;35.624;139.698;2023-02-19T14:20:39;14.00;14.00;
53658;PMS5003;41524;35.624;139.698;2023-02-19T14:25:17;10.00;7.00;
53658;PMS5003;41524;35.624;139.698;2023-02-19T14:30:14;9.00;9.00;
53658;PMS5003;41524;35.624;139.698;2023-02-19T14:35:16;9.00;9.00;
53658;PMS5003;41524;35.624;139.698;2023-02-19T14:40:17;9.00;9.00;
53658;PMS5003;41524;35.624;139.698;2023-02-19T14:45:09;10.00;10.00;
53658;PMS5003;41524;35.624;139.698;2023-02-19T14:50:11;12.00;10.00;
53658;PMS5003;41524;35.624;139.698;2023-02-19T14:55:12;16.00;12.00;
53658;PMS5003;41524;35.624;139.698;2023-02-19T15:00:20;14.00;13.00;
53658;PMS5003;41524;35.624;139.698;2023-02-19T15:05:22;14.00;11.00;
53658;PMS5003;41524;35.624;139.698;2023-02-19T15:10:11;13.00;13.00;
53658;PMS5003;41524;35.624;139.698;2023-02-19T15:15:14;14.00;13.00;
53658;PMS5003;41524;35.624;139.698;2023-02-19T15:20:15;16.00;13.00;
53658;PMS5003;41524;35.624;139.698;2023-02-19T15:25:10;14.00;12.00;
53658;PMS5003;41524;35.624;139.698;2023-02-19T15:30:16;16.00;14.00;
53658;PMS5003;41524;35.624;139.698;2023-02-19T15:35:20;18.00;16.00;
53658;PMS5003;41524;35.624;139.698;2023-02-19T15:40:14;22.00;21.00;
53658;PMS5003;41524;35.624;139.698;2023-02-19T15:45:12;15.00;13.00;
53658;PMS5003;41524;35.624;139.698;2023-02-19T15:50:14;17.00;16.00;
53658;PMS5003;41524;35.624;139.698;2023-02-19T15:55:20;16.00;16.00;
53658;PMS5003;41524;35.624;139.698;2023-02-19T16:00:15;21.00;14.00;
53658;PMS5003;41524;35.624;139.698;2023-02-19T16:05:11;21.00;18.00;
53658;PMS5003;41524;35.624;139.698;2023-02-19T16:10:24;14.00;12.00;
53658;PMS5003;41524;35.624;139.698;2023-02-19T16:15:13;17.00;16.00;
53658;PMS5003;41524;35.624;139.698;2023-02-19T16:20:16;21.00;20.00;
53658;PMS5003;41524;35.624;139.698;2023-02-19T16:25:20;20.00;19.00;
53658;PMS5003;41524;35.624;139.698;2023-02-19T16:30:19;17.00;14.00;
53658;PMS5003;41524;35.624;139.698;2023-02-19T16:35:26;17.00;15.00;
53658;PMS5003;41524;35.624;139.698;2023-02-19T16:40:39;15.00;14.00;
53658;PMS5003;41524;35.624;139.698;2023-02-19T16:45:12;17.00;16.00;
53658;PMS5003;41524;35.624;139.698;2023-02-19T16:50:11;20.00;20.00;
53658;PMS5003;41524;35.624;139.698;2023-02-19T16:55:11;18.00;18.00;
53658;PMS5003;41524;35.624;139.698;2023-02-19T17:00:13;21.00;20.00;
53658;PMS5003;41524;35.624;139.698;2023-02-19T17:05:13;19.00;14.00;
53658;PMS5003;41524;35.624;139.698;2023-02-19T17:10:09;24.00;23.00;
53658;PMS5003;41524;35.624;139.698;2023-02-19T17:15:09;17.00;17.00;
53658;PMS5003;41524;35.624;139.698;2023-02-19T17:20:17;17.00;17.00;
53658;PMS5003;41524;35.624;139.698;2023-02-19T17:25:11;11.00;11.00;
53658;PMS5003;41524;35.624;139.698;2023-02-19T17:30:10;19.00;16.00;
53658;PMS5003;41524;35.624;139.698;2023-02-19T17:35:09;23.00;21.00;
53658;PMS5003;41524;35.624;139.698;2023-02-19T17:40:11;22.00;21.00;
53658;PMS5003;41524;35.624;139.698;2023-02-19T17:45:09;19.00;18.00;
53658;PMS5003;41524;35.624;139.698;2023-02-19T17:50:09;25.00;24.00;
53658;PMS5003;41524;35.624;139.698;2023-02-19T17:55:10;26.00;23.00;
53658;PMS5003;41524;35.624;139.698;2023-02-19T18:00:12;19.00;18.00;
53658;PMS5003;41524;35.624;139.698;2023-02-19T18:05:14;22.00;19.00;
53658;PMS5003;41524;35.624;139.698;2023-02-19T18:10:09;24.00;21.00;
53658;PMS5003;41524;35.624;139.698;2023-02-19T18:15:14;19.00;19.00;
53658;PMS5003;41524;35.624;139.698;2023-02-19T18:20:15;16.00;15.00;
53658;PMS5003;41524;35.624;139.698;2023-02-19T18:25:09;25.00;22.00;
53658;PMS5003;41524;35.624;139.698;2023-02-19T18:30:10;22.00;21.00;
53658;PMS5003;41524;35.624;139.698;2023-02-19T18:35:09;22.00;21.00;
53658;PMS5003;41524;35.624;139.698;2023-02-19T18:40:13;17.00;16.00;
53658;PMS5003;41524;35.624;139.698;2023-02-19T18:45:09;30.00;27.00;
53658;PMS5003;41524;35.624;139.698;2023-02-19T18:50:09;24.00;22.00;
53658;PMS5003;41524;35.624;139.698;2023-02-19T18:55:10;21.00;21.00;
53658;PMS5003;41524;35.624;139.698;2023-02-19T19:00:09;15.00;15.00;
53658;PMS5003;41524;35.624;139.698;2023-02-19T19:05:09;17.00;17.00;
53658;PMS5003;41524;35.624;139.698;2023-02-19T19:10:09;29.00;19.00;
53658;PMS5003;41524;35.624;139.698;2023-02-19T19:15:09;19.00;18.00;
53658;PMS5003;41524;35.624;139.698;2023-02-19T19:20:09;23.00;22.00;
53658;PMS5003;41524;35.624;139.698;2023-02-19T19:25:09;16.00;16.00;
53658;PMS5003;41524;35.624;139.698;2023-02-19T19:30:10;25.00;23.00;
53658;PMS5003;41524;35.624;139.698;2023-02-19T19:35:10;24.00;21.00;
53658;PMS5003;41524;35.624;139.698;2023-02-19T19:40:10;18.00;18.00;
53658;PMS5003;41524;35.624;139.698;2023-02-19T19:45:13;22.00;20.00;
53658;PMS5003;41524;35.624;139.698;2023-02-19T19:50:09;19.00;14.00;
53658;PMS5003;41524;35.624;139.698;2023-02-19T19:55:08;10.00;10.00;
53658;PMS5003;41524;35.624;139.698;2023-02-19T20:00:09;9.00;7.00;
53658;PMS5003;41524;35.624;139.698;2023-02-19T20:05:09;5.00;5.00;
53658;PMS5003;41524;35.624;139.698;2023-02-19T20:10:12;3.00;3.00;
53658;PMS5003;41524;35.624;139.698;2023-02-19T20:15:10;3.00;3.00;
53658;PMS5003;41524;35.624;139.698;2023-02-19T20:20:09;3.00;2.00;
53658;PMS5003;41524;35.624;139.698;2023-02-19T20:25:10;5.00;5.00;
53658;PMS5003;41524;35.624;139.698;2023-02-19T20:30:16;2.00;1.00;
53658;PMS5003;41524;35.624;139.698;2023-02-19T20:35:09;1.00;1.00;
53658;PMS5003;41524;35.624;139.698;2023-02-19T20:40:09;1.00;1.00;
53658;PMS5003;41524;35.624;139.698;2023-02-19T20:45:09;0.00;0.00;
53658;PMS5003;41524;35.624;139.698;2023-02-19T20:50:10;1.00;1.00;
53658;PMS5003;41524;35.624;139.698;2023-02-19T20:55:10;0.00;0.00;
53658;PMS5003;41524;35.624;139.698;2023-02-19T21:00:15;0.00;0.00;
53658;PMS5003;41524;35.624;139.698;2023-02-19T21:05:09;0.00;0.00;
53658;PMS5003;41524;35.624;139.698;2023-02-19T21:10:10;0.00;0.00;
53658;PMS5003;41524;35.624;139.698;2023-02-19T21:15:10;0.00;0.00;
53658;PMS5003;41524;35.624;139.698;2023-02-19T21:20:09;0.00;0.00;
53658;PMS5003;41524;35.624;139.698;2023-02-19T21:25:10;0.00;0.00;
53658;PMS5003;41524;35.624;139.698;2023-02-19T21:30:15;0.00;0.00;
53658;PMS5003;41524;35.624;139.698;2023-02-19T21:35:09;1.00;1.00;
53658;PMS5003;41524;35.624;139.698;2023-02-19T21:40:10;1.00;0.00;
53658;PMS5003;41524;35.624;139.698;2023-02-19T21:45:14;0.00;0.00;
53658;PMS5003;41524;35.624;139.698;2023-02-19T21:50:10;1.00;1.00;
53658;PMS5003;41524;35.624;139.698;2023-02-19T21:55:09;4.00;2.00;
53658;PMS5003;41524;35.624;139.698;2023-02-19T22:00:14;3.00;3.00;
53658;PMS5003;41524;35.624;139.698;2023-02-19T22:05:09;3.00;2.00;
53658;PMS5003;41524;35.624;139.698;2023-02-19T22:10:14;2.00;1.00;
53658;PMS5003;41524;35.624;139.698;2023-02-19T22:15:09;2.00;2.00;
53658;PMS5003;41524;35.624;139.698;2023-02-19T22:20:10;1.00;1.00;
53658;PMS5003;41524;35.624;139.698;2023-02-19T22:25:14;1.00;1.00;
53658;PMS5003;41524;35.624;139.698;2023-02-19T22:30:09;1.00;1.00;
53658;PMS5003;41524;35.624;139.698;2023-02-19T22:35:09;2.00;2.00;
53658;PMS5003;41524;35.624;139.698;2023-02-19T22:40:09;2.00;2.00;
53658;PMS5003;41524;35.624;139.698;2023-02-19T22:45:10;4.00;2.00;
53658;PMS5003;41524;35.624;139.698;2023-02-19T22:50:15;2.00;2.00;
53658;PMS5003;41524;35.624;139.698;2023-02-19T22:55:10;3.00;2.00;
53658;PMS5003;41524;35.624;139.698;2023-02-19T23:00:16;2.00;2.00;
53658;PMS5003;41524;35.624;139.698;2023-02-19T23:05:14;2.00;2.00;
53658;PMS5003;41524;35.624;139.698;2023-02-19T23:10:13;2.00;2.00;
53658;PMS5003;41524;35.624;139.698;2023-02-19T23:15:13;3.00;3.00;
53658;PMS5003;41524;35.624;139.698;2023-02-19T23:20:09;2.00;2.00;
53658;PMS5003;41524;35.624;139.698;2023-02-19T23:25:14;1.00;1.00;
53658;PMS5003;41524;35.624;139.698;2023-02-19T23:30:14;2.00;2.00;
53658;PMS5003;41524;35.624;139.698;2023-02-19T23:35:09;3.00;3.00;
53658;PMS5003;41524;35.624;139.698;2023-02-19T23:40:10;2.00;0.00;
53658;PMS5003;41524;35.624;139.698;2023-02-19T23:45:14;1.00;1.00;
53658;PMS5003;41524;35.624;139.698;2023-02-19T23:50:14;3.00;3.00;
53658;PMS5003;41524;35.624;139.698;2023-02-19T23:55:10;3.00;2.00;
